Time;durP1;ratioP1;P1;durP2;ratioP2;P2;SDS_P1;SDS_P2;PMS_P1;PMS_P2;Temp;Humidity;BMP_temperature;BMP_pressure;BME280_temperature;BME280_humidity;BME280_pressure;Samples;Min_cycle;Max_cycle;Signal;HPM_P1;HPM_P2
2023/02/12 00:01:49;;;;;;;36.93;24.93;;;0.30;99.90;;;;;;5024022;28;20212;-51
2023/02/12 00:04:16;;;;;;;32.40;23.50;;;0.20;99.90;;;;;;5030644;28;20223;-52
2023/02/12 00:06:43;;;;;;;38.80;23.67;;;0.20;99.90;;;;;;5029962;28;20639;-51
2023/02/12 00:09:11;;;;;;;33.00;22.00;;;0.10;99.90;;;;;;5024942;28;20220;-51
2023/02/12 00:11:38;;;;;;;37.70;21.43;;;0.10;99.90;;;;;;5031169;28;20203;-51
2023/02/12 00:14:05;;;;;;;35.03;21.60;;;0.10;99.90;;;;;;5030350;28;20273;-52
2023/02/12 00:16:32;;;;;;;29.33;20.50;;;0.00;99.90;;;;;;5029896;28;20281;-52
2023/02/12 00:18:59;;;;;;;34.63;21.33;;;0.00;99.90;;;;;;5031245;28;20649;-52
2023/02/12 00:21:28;;;;;;;37.73;20.70;;;-0.10;99.90;;;;;;5031144;28;20252;-52
2023/02/12 00:23:55;;;;;;;29.10;18.97;;;-0.10;99.90;;;;;;5029907;28;20224;-52
2023/02/12 00:26:24;;;;;;;32.27;20.50;;;-0.20;99.90;;;;;;5022578;28;20554;-51
2023/02/12 00:28:52;;;;;;;35.57;25.47;;;-0.20;99.90;;;;;;5030584;28;20277;-53
2023/02/12 00:31:20;;;;;;;37.30;22.20;;;-0.20;99.90;;;;;;5028821;28;20259;-51
2023/02/12 00:33:47;;;;;;;39.73;23.57;;;-0.20;99.90;;;;;;5033288;28;20560;-52
2023/02/12 00:36:21;;;;;;;48.47;35.00;;;-0.20;99.90;;;;;;5031256;28;20203;-51
2023/02/12 00:38:48;;;;;;;43.53;31.33;;;-0.20;99.90;;;;;;5033788;28;20223;-52
2023/02/12 00:41:16;;;;;;;49.57;32.03;;;-0.20;99.90;;;;;;5034457;28;20207;-55
2023/02/12 00:43:44;;;;;;;36.80;22.83;;;-0.10;99.90;;;;;;5025606;28;20223;-52
2023/02/12 00:46:12;;;;;;;33.40;19.40;;;-0.10;99.90;;;;;;5033134;28;20661;-51
2023/02/12 00:48:39;;;;;;;34.97;20.83;;;-0.20;99.90;;;;;;5034135;28;20220;-51
2023/02/12 00:51:06;;;;;;;37.27;21.53;;;-0.20;99.90;;;;;;5027940;28;20249;-52
2023/02/12 00:53:33;;;;;;;30.53;21.53;;;-0.30;99.90;;;;;;5033956;28;20196;-51
2023/02/12 00:56:00;;;;;;;35.93;21.30;;;-0.30;99.90;;;;;;5033027;28;20199;-52
2023/02/12 00:58:27;;;;;;;39.07;22.80;;;-0.40;99.90;;;;;;5032637;28;20199;-51
2023/02/12 01:00:56;;;;;;;35.00;21.07;;;-0.40;99.90;;;;;;5034021;28;20739;-52
2023/02/12 01:03:23;;;;;;;30.93;20.20;;;-0.40;99.90;;;;;;5026352;28;20706;-52
2023/02/12 01:05:50;;;;;;;30.03;20.63;;;-0.50;99.90;;;;;;5027992;28;20226;-53
2023/02/12 01:08:17;;;;;;;33.43;19.80;;;-0.50;99.90;;;;;;5033654;28;20241;-52
2023/02/12 01:10:44;;;;;;;37.00;20.17;;;-0.50;99.90;;;;;;5034155;28;20211;-52
2023/02/12 01:13:13;;;;;;;34.37;20.53;;;-0.60;99.90;;;;;;5028665;28;20192;-51
2023/02/12 01:15:40;;;;;;;28.27;19.10;;;-0.60;99.90;;;;;;5029974;28;20199;-52
2023/02/12 01:18:09;;;;;;;31.77;19.60;;;-0.60;99.90;;;;;;5026931;28;20649;-52
2023/02/12 01:20:35;;;;;;;31.17;20.60;;;-0.60;99.90;;;;;;5032105;28;20226;-51
2023/02/12 01:23:05;;;;;;;32.97;20.43;;;-0.60;99.90;;;;;;5031603;28;20263;-52
2023/02/12 01:25:32;;;;;;;36.07;21.10;;;-0.60;99.90;;;;;;5013448;28;20204;-53
2023/02/12 01:27:59;;;;;;;34.03;18.83;;;-0.60;99.90;;;;;;5030988;28;20657;-51
2023/02/12 01:30:26;;;;;;;31.87;20.53;;;-0.60;99.90;;;;;;5030647;28;20215;-50
2023/02/12 01:32:54;;;;;;;33.83;21.07;;;-0.60;99.90;;;;;;5033682;28;20198;-49
2023/02/12 01:35:22;;;;;;;30.70;19.33;;;-0.60;99.90;;;;;;5033622;28;20207;-49
2023/02/12 01:37:49;;;;;;;32.00;18.93;;;-0.60;99.90;;;;;;5031986;28;20257;-50
2023/02/12 01:40:18;;;;;;;36.50;20.27;;;-0.60;99.90;;;;;;5031439;28;20748;-52
2023/02/12 01:42:45;;;;;;;31.10;20.30;;;-0.60;99.90;;;;;;5032562;28;20202;-51
2023/02/12 01:45:45;;;;;;;28.40;17.00;;;-0.60;99.90;;;;;;5033350;28;20270;-51
2023/02/12 01:48:13;;;;;;;29.07;18.00;;;-0.60;99.90;;;;;;5025048;28;20251;-52
2023/02/12 01:50:42;;;;;;;27.03;16.20;;;-0.60;99.90;;;;;;5026782;28;20219;-51
2023/02/12 01:53:10;;;;;;;33.97;21.27;;;-0.60;99.90;;;;;;5027869;28;20199;-52
2023/02/12 01:55:37;;;;;;;45.47;27.07;;;-0.60;99.90;;;;;;5031352;28;20628;-52
2023/02/12 01:58:05;;;;;;;39.53;29.50;;;-0.60;99.90;;;;;;5032658;28;20203;-50
2023/02/12 02:00:33;;;;;;;31.40;21.97;;;-0.50;99.90;;;;;;5032779;28;20235;-51
2023/02/12 02:03:01;;;;;;;38.33;23.50;;;-0.50;99.90;;;;;;5031670;28;20204;-51
2023/02/12 02:05:35;;;;;;;25.83;17.83;;;-0.60;99.90;;;;;;5033035;28;20623;-51
2023/02/12 02:08:03;;;;;;;36.53;21.60;;;-0.50;99.90;;;;;;5029644;28;20249;-52
2023/02/12 02:10:30;;;;;;;44.67;28.50;;;-0.50;99.90;;;;;;5031547;28;20293;-51
2023/02/12 02:15:47;;;;;;;27.70;19.13;;;-0.40;99.90;;;;;;5031134;28;20736;-52
2023/02/12 02:18:20;;;;;;;24.77;17.77;;;-0.50;99.90;;;;;;5032466;28;20204;-51
2023/02/12 02:21:24;;;;;;;31.60;19.30;;;-0.60;99.90;;;;;;5032526;28;20202;-53
2023/02/12 02:24:32;;;;;;;29.43;18.80;;;-0.60;99.90;;;;;;5029561;28;20281;-52
2023/02/12 02:27:36;;;;;;;30.33;20.13;;;-0.70;99.90;;;;;;5000796;28;20859;-54
2023/02/12 02:30:22;;;;;;;32.00;18.60;;;-0.70;99.90;;;;;;4984175;28;20251;-51
2023/02/12 02:32:59;;;;;;;26.93;17.73;;;-0.80;99.90;;;;;;5032624;28;20200;-53
2023/02/12 02:35:32;;;;;;;28.90;18.40;;;-0.90;99.90;;;;;;5030045;28;20196;-52
2023/02/12 02:38:07;;;;;;;34.47;23.67;;;-0.90;99.90;;;;;;5012445;28;20207;-52
2023/02/12 02:40:43;;;;;;;39.47;24.83;;;-0.90;99.90;;;;;;5029998;28;20224;-52
2023/02/12 02:43:17;;;;;;;40.77;25.03;;;-0.90;99.90;;;;;;5030871;28;20198;-51
2023/02/12 02:45:49;;;;;;;34.80;22.43;;;-0.90;99.90;;;;;;5028286;28;20207;-52
2023/02/12 02:48:19;;;;;;;29.67;19.73;;;-0.90;99.90;;;;;;5032109;28;20264;-54
2023/02/12 02:50:52;;;;;;;33.60;20.73;;;-0.90;99.90;;;;;;5030945;28;20212;-54
2023/02/12 02:53:26;;;;;;;30.67;19.37;;;-1.00;99.90;;;;;;5026691;28;20675;-52
2023/02/12 02:55:56;;;;;;;32.23;21.07;;;-1.00;99.90;;;;;;5031418;28;20265;-53
2023/02/12 03:00:58;;;;;;;41.87;28.63;;;-1.00;99.90;;;;;;5026500;28;20210;-50
2023/02/12 03:03:32;;;;;;;34.27;25.53;;;-1.00;99.90;;;;;;5026996;28;20239;-49
2023/02/12 03:06:03;;;;;;;35.03;23.03;;;-1.00;99.90;;;;;;5030247;28;20609;-49
2023/02/12 03:08:36;;;;;;;38.27;26.13;;;-1.10;99.90;;;;;;5031406;28;20199;-49
2023/02/12 03:11:07;;;;;;;36.47;23.77;;;-1.10;99.90;;;;;;5011639;28;20207;-49
2023/02/12 03:13:40;;;;;;;35.07;23.20;;;-1.10;99.90;;;;;;5015706;28;20257;-48
2023/02/12 03:16:14;;;;;;;31.47;21.40;;;-1.20;99.90;;;;;;5033446;28;20198;-50
2023/02/12 03:18:44;;;;;;;36.33;23.17;;;-1.20;99.90;;;;;;5048764;28;20197;-46
2023/02/12 03:21:15;;;;;;;36.43;23.27;;;-1.20;99.90;;;;;;5046723;28;20224;-49
2023/02/12 03:23:47;;;;;;;33.63;22.03;;;-1.30;99.90;;;;;;5045818;28;20223;-50
2023/02/12 03:26:19;;;;;;;31.07;19.00;;;-1.20;99.90;;;;;;5050171;28;20349;-49
2023/02/12 03:28:47;;;;;;;31.63;19.43;;;-1.20;99.90;;;;;;5043817;28;20223;-49
2023/02/12 03:31:24;;;;;;;36.47;20.43;;;-1.30;99.90;;;;;;5042276;28;20211;-48
2023/02/12 03:34:00;;;;;;;35.47;24.27;;;-1.30;99.90;;;;;;5047686;28;20616;-47
2023/02/12 03:36:36;;;;;;;31.07;22.73;;;-1.20;99.90;;;;;;5046025;28;20204;-49
2023/02/12 03:39:11;;;;;;;36.30;23.00;;;-1.20;99.90;;;;;;5024420;28;20218;-50
2023/02/12 03:41:45;;;;;;;39.43;21.70;;;-1.20;99.90;;;;;;5039259;28;20252;-47
2023/02/12 03:44:21;;;;;;;44.20;21.90;;;-1.20;99.90;;;;;;5035064;28;20267;-47
2023/02/12 03:46:59;;;;;;;36.17;22.97;;;-1.20;99.90;;;;;;5035375;28;20734;-47
2023/02/12 03:49:32;;;;;;;37.13;23.60;;;-1.30;99.90;;;;;;5033916;28;20214;-47
2023/02/12 03:51:59;;;;;;;31.77;22.30;;;-1.30;99.90;;;;;;5027934;28;20246;-47
2023/02/12 03:54:27;;;;;;;32.47;19.03;;;-1.30;99.90;;;;;;5034760;28;20207;-47
2023/02/12 03:56:59;;;;;;;37.60;20.17;;;-1.30;99.90;;;;;;5029878;28;20210;-47
2023/02/12 03:59:27;;;;;;;30.87;20.50;;;-1.40;99.90;;;;;;5034001;28;20239;-47
2023/02/12 04:01:58;;;;;;;30.63;21.00;;;-1.40;99.90;;;;;;5028794;28;20245;-48
2023/02/12 04:04:27;;;;;;;29.63;19.60;;;-1.50;99.90;;;;;;5030468;28;20592;-47
2023/02/12 04:06:54;;;;;;;32.50;20.53;;;-1.50;99.90;;;;;;5033272;28;20271;-47
2023/02/12 04:09:23;;;;;;;29.80;18.53;;;-1.50;99.90;;;;;;5034386;28;20218;-48
2023/02/12 04:12:06;;;;;;;28.97;20.17;;;-1.50;99.90;;;;;;5033849;28;20209;-48
2023/02/12 04:14:49;;;;;;;31.63;19.30;;;-1.50;99.90;;;;;;5031840;28;20205;-47
2023/02/12 04:17:30;;;;;;;32.13;20.70;;;-1.50;99.90;;;;;;5040162;28;20264;-47
2023/02/12 04:20:08;;;;;;;31.93;21.00;;;-1.50;99.90;;;;;;5052011;28;20293;-46
2023/02/12 04:22:45;;;;;;;30.80;20.57;;;-1.50;99.90;;;;;;5031191;28;20200;-48
2023/02/12 04:25:21;;;;;;;32.63;20.07;;;-1.50;99.90;;;;;;5032755;28;20227;-48
2023/02/12 04:27:56;;;;;;;33.67;21.30;;;-1.40;99.90;;;;;;5035549;28;20198;-47
2023/02/12 04:30:28;;;;;;;30.77;18.63;;;-1.50;99.90;;;;;;5049184;28;20630;-48
2023/02/12 04:33:00;;;;;;;25.53;18.80;;;-1.50;99.90;;;;;;5045149;28;20204;-47
2023/02/12 04:35:32;;;;;;;37.13;20.97;;;-1.50;99.90;;;;;;5049801;28;20199;-48
2023/02/12 04:38:05;;;;;;;32.87;20.60;;;-1.50;99.90;;;;;;5047045;28;20198;-48
2023/02/12 04:40:33;;;;;;;32.20;19.73;;;-1.50;99.90;;;;;;5041893;28;20216;-48
2023/02/12 04:43:00;;;;;;;32.33;19.93;;;-1.60;99.90;;;;;;5033809;28;21074;-47
2023/02/12 04:45:29;;;;;;;31.77;18.67;;;-1.60;99.90;;;;;;5034780;28;20276;-48
2023/02/12 04:47:58;;;;;;;34.03;22.10;;;-1.60;99.90;;;;;;5039159;28;20198;-47
2023/02/12 04:50:26;;;;;;;34.30;20.30;;;-1.60;99.90;;;;;;5029437;28;20272;-46
2023/02/12 04:52:53;;;;;;;29.03;19.57;;;-1.60;99.90;;;;;;5043445;28;20264;-47
2023/02/12 04:55:20;;;;;;;32.20;21.30;;;-1.70;99.90;;;;;;5033813;28;20205;-46
2023/02/12 04:57:47;;;;;;;27.93;20.27;;;-1.70;99.90;;;;;;5029509;28;20216;-46
2023/02/12 05:00:15;;;;;;;31.50;21.87;;;-1.70;99.90;;;;;;5047158;28;20222;-48
2023/02/12 05:02:42;;;;;;;44.70;28.43;;;-1.70;99.90;;;;;;5035380;28;20255;-46
2023/02/12 05:05:11;;;;;;;34.27;21.20;;;-1.60;99.90;;;;;;5033492;28;20223;-47
2023/02/12 05:07:38;;;;;;;33.20;20.40;;;-1.60;99.90;;;;;;5033111;28;20212;-47
2023/02/12 05:10:05;;;;;;;31.57;19.80;;;-1.60;99.90;;;;;;5030065;28;20301;-47
2023/02/12 05:12:32;;;;;;;32.23;19.17;;;-1.60;99.90;;;;;;5046911;28;20200;-46
2023/02/12 05:14:59;;;;;;;30.77;19.93;;;-1.70;99.90;;;;;;5043620;28;20202;-48
2023/02/12 05:17:29;;;;;;;29.10;19.07;;;-1.70;99.90;;;;;;5031917;28;20220;-48
2023/02/12 05:19:56;;;;;;;30.30;18.83;;;-1.70;99.90;;;;;;5039430;28;20224;-46
2023/02/12 05:22:25;;;;;;;31.67;21.30;;;-1.70;99.90;;;;;;5048305;28;20199;-46
2023/02/12 05:24:52;;;;;;;26.57;19.00;;;-1.80;99.90;;;;;;5043431;28;20641;-48
2023/02/12 05:27:18;;;;;;;29.27;19.27;;;-1.80;99.90;;;;;;5047371;28;20202;-46
2023/02/12 05:29:45;;;;;;;36.83;20.20;;;-1.80;99.90;;;;;;5042708;28;20285;-48
2023/02/12 05:32:12;;;;;;;27.90;18.67;;;-1.80;99.90;;;;;;5035208;28;20271;-46
2023/02/12 05:34:39;;;;;;;36.50;21.70;;;-1.80;99.90;;;;;;5032934;28;20199;-47
2023/02/12 05:37:06;;;;;;;27.37;18.00;;;-1.80;99.90;;;;;;5034584;28;20636;-47
2023/02/12 05:39:35;;;;;;;31.60;19.43;;;-1.90;99.90;;;;;;5033572;28;20281;-48
2023/02/12 05:42:02;;;;;;;30.57;17.90;;;-1.90;99.90;;;;;;5045391;28;20577;-47
2023/02/12 05:44:29;;;;;;;27.57;17.43;;;-1.90;99.90;;;;;;5052635;28;20222;-47
2023/02/12 05:46:55;;;;;;;38.90;21.30;;;-1.90;99.90;;;;;;5046044;28;20204;-47
2023/02/12 05:49:22;;;;;;;32.53;20.03;;;-1.90;99.90;;;;;;5030670;28;20775;-46
2023/02/12 05:51:50;;;;;;;36.70;19.60;;;-1.90;99.90;;;;;;5033670;28;20200;-48
2023/02/12 05:54:16;;;;;;;27.30;20.57;;;-1.90;99.90;;;;;;5051773;28;20200;-47
2023/02/12 05:56:47;;;;;;;34.10;21.50;;;-1.90;99.90;;;;;;5041838;28;20650;-48
2023/02/12 05:59:16;;;;;;;32.20;21.13;;;-1.90;99.90;;;;;;5046606;28;20281;-47
2023/02/12 06:01:44;;;;;;;33.33;21.90;;;-1.90;99.90;;;;;;5038586;28;20708;-48
2023/02/12 06:04:15;;;;;;;28.93;19.73;;;-1.80;99.90;;;;;;5037277;28;20200;-47
2023/02/12 06:06:42;;;;;;;30.57;20.20;;;-1.80;99.90;;;;;;5042916;28;20207;-47
2023/02/12 06:09:10;;;;;;;33.13;20.43;;;-1.90;99.90;;;;;;5046657;28;20269;-47
2023/02/12 06:11:38;;;;;;;29.93;19.93;;;-1.90;99.90;;;;;;5043663;28;20735;-48
2023/02/12 06:14:08;;;;;;;33.97;20.33;;;-1.90;99.90;;;;;;5039328;28;20245;-47
2023/02/12 06:16:35;;;;;;;29.60;19.47;;;-1.90;99.90;;;;;;5034975;28;20200;-48
2023/02/12 06:19:04;;;;;;;23.93;16.87;;;-1.90;99.90;;;;;;5038261;28;20261;-48
2023/02/12 06:21:31;;;;;;;23.90;16.13;;;-1.90;99.90;;;;;;5039441;28;20203;-46
2023/02/12 06:23:58;;;;;;;32.03;21.00;;;-1.90;99.90;;;;;;5032170;28;20200;-47
2023/02/12 06:26:26;;;;;;;39.67;24.07;;;-1.90;99.90;;;;;;5038568;28;20223;-48
2023/02/12 06:28:53;;;;;;;38.30;24.03;;;-1.90;99.90;;;;;;5020970;28;20700;-46
2023/02/12 06:31:23;;;;;;;28.50;18.57;;;-1.90;99.90;;;;;;5025618;28;20204;-47
2023/02/12 06:33:51;;;;;;;30.23;18.50;;;-1.90;99.90;;;;;;5018815;28;20259;-47
2023/02/12 06:36:18;;;;;;;28.23;18.27;;;-1.80;99.90;;;;;;5028473;28;20272;-46
2023/02/12 06:38:46;;;;;;;29.67;18.50;;;-1.80;99.90;;;;;;5016622;28;20278;-47
2023/02/12 06:41:13;;;;;;;28.67;20.23;;;-1.80;99.90;;;;;;5016363;28;20197;-46
2023/02/12 06:43:39;;;;;;;32.20;18.20;;;-1.90;99.90;;;;;;5023272;28;20200;-47
2023/02/12 06:46:07;;;;;;;30.60;19.07;;;-1.90;99.90;;;;;;5028472;28;20214;-47
2023/02/12 06:48:35;;;;;;;30.33;19.33;;;-1.90;99.90;;;;;;5016309;28;20270;-47
2023/02/12 06:51:07;;;;;;;29.43;17.97;;;-1.90;99.90;;;;;;5016381;28;20338;-47
2023/02/12 06:53:35;;;;;;;27.97;18.30;;;-1.90;99.90;;;;;;5019352;28;20204;-47
2023/02/12 06:56:02;;;;;;;42.10;19.03;;;-1.90;99.90;;;;;;5025542;28;20251;-47
2023/02/12 06:58:29;;;;;;;26.90;16.80;;;-1.90;99.90;;;;;;5018727;28;20259;-47
2023/02/12 07:00:56;;;;;;;22.83;14.07;;;-1.90;99.90;;;;;;5027423;28;20230;-46
2023/02/12 07:03:24;;;;;;;31.23;18.97;;;-2.00;99.90;;;;;;5026574;28;20657;-46
2023/02/12 07:05:52;;;;;;;23.57;14.57;;;-1.90;99.90;;;;;;5024160;28;20229;-46
2023/02/12 07:08:19;;;;;;;23.27;14.30;;;-1.90;99.90;;;;;;5013517;28;20443;-46
2023/02/12 07:10:49;;;;;;;24.87;15.07;;;-1.90;99.90;;;;;;5011606;28;20219;-47
2023/02/12 07:13:16;;;;;;;22.47;14.10;;;-1.80;99.90;;;;;;5020498;28;20200;-47
2023/02/12 07:15:43;;;;;;;20.17;13.50;;;-1.70;99.90;;;;;;5022702;28;20200;-46
2023/02/12 07:18:10;;;;;;;16.77;12.70;;;-1.50;99.90;;;;;;5016241;28;20617;-47
2023/02/12 07:20:37;;;;;;;29.77;15.27;;;-1.30;99.90;;;;;;5016468;28;20639;-48
2023/02/12 07:23:05;;;;;;;24.07;14.20;;;-1.30;99.90;;;;;;5030050;28;20199;-46
2023/02/12 07:25:32;;;;;;;20.83;14.77;;;-1.20;99.90;;;;;;5015261;28;20224;-46
2023/02/12 07:27:59;;;;;;;19.87;13.23;;;-1.10;99.90;;;;;;5022857;28;20202;-46
2023/02/12 07:30:26;;;;;;;27.67;14.47;;;-1.00;99.90;;;;;;5025508;28;20640;-47
2023/02/12 07:32:53;;;;;;;26.87;15.57;;;-0.90;99.90;;;;;;5018851;28;20751;-47
2023/02/12 07:35:20;;;;;;;30.17;16.80;;;-0.90;99.90;;;;;;5016771;28;20334;-46
2023/02/12 07:37:47;;;;;;;23.47;16.87;;;-0.90;99.90;;;;;;5022608;28;20274;-48
2023/02/12 07:40:16;;;;;;;21.33;15.10;;;-0.80;99.90;;;;;;5029896;28;20272;-47
2023/02/12 07:42:42;;;;;;;23.87;15.10;;;-0.70;99.90;;;;;;5033781;28;20209;-48
2023/02/12 07:45:10;;;;;;;17.43;12.30;;;-0.60;99.90;;;;;;5030562;28;20220;-47
2023/02/12 07:47:37;;;;;;;22.90;17.17;;;-0.40;99.90;;;;;;5015124;28;20245;-46
2023/02/12 07:50:06;;;;;;;23.13;17.77;;;-0.20;99.90;;;;;;5018622;28;20312;-47
2023/02/12 07:52:36;;;;;;;33.73;22.13;;;-0.10;99.90;;;;;;5015163;28;20308;-46
2023/02/12 07:55:03;;;;;;;22.97;15.87;;;0.10;99.90;;;;;;5024952;28;20199;-47
2023/02/12 07:57:35;;;;;;;20.63;15.37;;;0.30;99.90;;;;;;5032247;28;20209;-48
2023/02/12 08:00:02;;;;;;;22.97;16.73;;;0.70;99.90;;;;;;5021978;28;20310;-47
2023/02/12 08:02:29;;;;;;;23.70;15.63;;;1.20;99.90;;;;;;5023202;28;20268;-47
2023/02/12 08:04:56;;;;;;;19.50;14.33;;;1.40;99.90;;;;;;5027895;28;20261;-47
2023/02/12 08:07:23;;;;;;;18.10;14.00;;;1.60;99.90;;;;;;5027087;28;20277;-47
2023/02/12 08:09:51;;;;;;;20.00;13.40;;;2.00;99.90;;;;;;5032568;28;20223;-46
2023/02/12 08:12:18;;;;;;;17.70;13.67;;;2.50;99.90;;;;;;5034327;28;20245;-47
2023/02/12 08:14:47;;;;;;;17.13;13.43;;;3.20;99.90;;;;;;5017097;28;20221;-47
2023/02/12 08:17:14;;;;;;;16.00;12.20;;;3.50;99.90;;;;;;5014725;28;20193;-46
2023/02/12 08:19:41;;;;;;;15.70;11.77;;;3.60;99.90;;;;;;5014703;28;20218;-47
2023/02/12 08:22:08;;;;;;;17.27;12.33;;;4.10;99.90;;;;;;5027684;28;20672;-47
2023/02/12 08:24:35;;;;;;;15.77;12.37;;;4.10;99.90;;;;;;5033905;28;20211;-47
2023/02/12 08:27:05;;;;;;;15.40;11.70;;;4.20;99.90;;;;;;5039120;28;20215;-46
2023/02/12 08:29:32;;;;;;;20.37;12.23;;;4.20;99.90;;;;;;5025055;28;20243;-47
2023/02/12 08:32:02;;;;;;;24.03;13.77;;;4.30;99.90;;;;;;5026680;28;20204;-47
2023/02/12 08:34:31;;;;;;;14.77;10.80;;;4.30;99.90;;;;;;5030082;28;20576;-48
2023/02/12 08:36:59;;;;;;;16.23;11.73;;;4.20;99.90;;;;;;5014626;28;20239;-46
2023/02/12 08:39:28;;;;;;;16.20;10.73;;;4.20;99.90;;;;;;5022813;28;20225;-47
2023/02/12 08:41:56;;;;;;;11.13;9.90;;;4.20;99.90;;;;;;5014229;28;20215;-47
2023/02/12 08:44:24;;;;;;;16.73;11.83;;;4.20;99.90;;;;;;5022814;28;20250;-48
2023/02/12 08:46:54;;;;;;;13.53;10.30;;;4.40;99.90;;;;;;5031247;28;20780;-47
2023/02/12 08:49:25;;;;;;;14.97;10.53;;;4.80;99.90;;;;;;5025551;28;20246;-47
2023/02/12 08:51:54;;;;;;;12.10;10.07;;;5.30;99.90;;;;;;5015092;28;20197;-47
2023/02/12 08:54:24;;;;;;;11.77;10.30;;;5.60;99.90;;;;;;5022695;28;20200;-48
2023/02/12 08:56:55;;;;;;;15.97;11.03;;;5.80;99.90;;;;;;5030661;28;20661;-46
2023/02/12 08:59:22;;;;;;;12.50;10.80;;;6.20;99.90;;;;;;5045149;23;20560;-52
2023/02/12 09:01:51;;;;;;;13.17;11.13;;;6.50;99.90;;;;;;5031851;28;20201;-49
2023/02/12 09:04:22;;;;;;;15.23;11.63;;;6.80;99.90;;;;;;5036046;28;20200;-51
2023/02/12 09:06:51;;;;;;;13.33;11.70;;;7.20;99.90;;;;;;5033481;28;20291;-50
2023/02/12 09:09:18;;;;;;;13.50;11.47;;;7.50;99.90;;;;;;5033135;28;20266;-49
2023/02/12 09:11:45;;;;;;;12.60;11.30;;;7.90;99.90;;;;;;5032517;28;20617;-49
2023/02/12 09:14:14;;;;;;;14.97;10.80;;;8.10;99.90;;;;;;5016962;28;20588;-51
2023/02/12 09:16:42;;;;;;;14.20;11.83;;;8.50;99.90;;;;;;5028792;28;20204;-50
2023/02/12 09:19:11;;;;;;;13.20;11.33;;;9.20;99.90;;;;;;5016982;28;20249;-51
2023/02/12 09:21:38;;;;;;;15.13;12.67;;;9.80;99.90;;;;;;5016656;28;20259;-52
2023/02/12 09:24:07;;;;;;;15.23;12.23;;;10.30;99.90;;;;;;5021433;28;20204;-49
2023/02/12 09:26:34;;;;;;;12.53;11.23;;;10.80;99.90;;;;;;5032199;28;20735;-51
2023/02/12 09:29:04;;;;;;;16.57;10.43;;;10.80;99.90;;;;;;5030757;28;20207;-51
2023/02/12 09:31:32;;;;;;;12.70;11.40;;;10.90;99.90;;;;;;5027123;28;20204;-51
2023/02/12 09:34:02;;;;;;;15.90;12.07;;;10.70;99.90;;;;;;5013743;28;20201;-50
2023/02/12 09:36:30;;;;;;;14.00;12.33;;;10.70;99.90;;;;;;5017592;28;20209;-52
2023/02/12 09:38:59;;;;;;;14.40;12.57;;;10.80;99.90;;;;;;5032943;28;20676;-50
2023/02/12 09:42:06;;;;;;;17.40;13.47;;;11.00;99.90;;;;;;5033080;28;20201;-50
2023/02/12 09:44:39;;;;;;;13.97;12.53;;;11.30;99.90;;;;;;5027095;28;20265;-51
2023/02/12 09:47:13;;;;;;;13.40;11.57;;;11.40;99.90;;;;;;5035925;28;20642;-51
2023/02/12 09:50:00;;;;;;;15.23;12.43;;;11.50;99.90;;;;;;5034923;28;20222;-51
2023/02/12 09:52:31;;;;;;;14.33;11.87;;;11.40;99.90;;;;;;5042941;28;20196;-51
2023/02/12 09:54:59;;;;;;;14.23;12.63;;;12.10;99.90;;;;;;5030184;28;20254;-50
2023/02/12 09:57:34;;;;;;;12.23;11.13;;;12.50;99.90;;;;;;5033074;28;20241;-51
2023/02/12 10:00:05;;;;;;;12.87;11.20;;;12.50;99.90;;;;;;5026179;28;20275;-51
2023/02/12 10:02:36;;;;;;;16.00;11.00;;;12.50;99.90;;;;;;5040918;28;20198;-51
2023/02/12 10:05:05;;;;;;;11.53;10.30;;;12.90;99.90;;;;;;5040030;28;20212;-50
2023/02/12 10:07:59;;;;;;;12.83;11.40;;;12.90;99.90;;;;;;5040585;28;20217;-51
2023/02/12 10:10:40;;;;;;;12.97;10.73;;;12.90;99.90;;;;;;5039703;28;20698;-51
2023/02/12 10:13:16;;;;;;;13.53;11.33;;;12.60;99.90;;;;;;5016843;28;20200;-51
2023/02/12 10:15:52;;;;;;;11.03;9.20;;;12.50;99.90;;;;;;5029591;28;20623;-51
2023/02/12 10:18:41;;;;;;;11.70;9.33;;;12.50;99.90;;;;;;5039844;28;20548;-50
2023/02/12 10:21:18;;;;;;;10.60;8.67;;;12.40;99.90;;;;;;5033993;28;20219;-51
2023/02/12 10:24:05;;;;;;;12.73;9.93;;;12.00;99.90;;;;;;5031194;28;20201;-51
2023/02/12 10:26:37;;;;;;;11.27;10.00;;;12.30;99.90;;;;;;5040944;28;20253;-52
2023/02/12 10:29:14;;;;;;;8.70;7.97;;;12.30;99.90;;;;;;5032133;28;20628;-50
2023/02/12 10:31:45;;;;;;;10.07;9.03;;;12.40;99.90;;;;;;5027312;28;20210;-49
2023/02/12 10:34:18;;;;;;;9.90;8.90;;;12.50;99.20;;;;;;5028449;28;20571;-51
2023/02/12 10:36:48;;;;;;;9.90;8.77;;;12.60;99.80;;;;;;5031232;28;20259;-50
2023/02/12 10:39:20;;;;;;;12.77;9.97;;;12.40;99.40;;;;;;5026558;28;20602;-51
2023/02/12 10:41:52;;;;;;;10.10;9.10;;;12.60;99.00;;;;;;5029930;28;20209;-50
2023/02/12 10:44:21;;;;;;;10.00;8.23;;;12.50;99.00;;;;;;5037637;28;20633;-50
2023/02/12 10:46:48;;;;;;;11.07;8.47;;;12.50;99.90;;;;;;5029279;28;20780;-50
2023/02/12 10:49:17;;;;;;;11.00;8.67;;;12.40;99.70;;;;;;5032111;28;20219;-50
2023/02/12 10:52:08;;;;;;;10.57;9.40;;;12.40;99.40;;;;;;5040886;28;20210;-52
2023/02/12 10:54:39;;;;;;;9.83;9.00;;;12.80;98.70;;;;;;5028403;28;20202;-51
2023/02/12 10:57:14;;;;;;;10.03;9.03;;;12.70;98.10;;;;;;5022422;28;20645;-50
2023/02/12 10:59:46;;;;;;;11.70;10.57;;;12.50;97.80;;;;;;5029053;28;20297;-50
2023/02/12 11:02:30;;;;;;;11.73;10.53;;;12.30;97.90;;;;;;5031555;28;20198;-50
2023/02/12 11:04:59;;;;;;;12.67;11.37;;;11.70;98.40;;;;;;5030539;28;20752;-51
2023/02/12 11:07:30;;;;;;;12.73;9.80;;;11.40;99.70;;;;;;5034354;28;20632;-50
2023/02/12 11:09:57;;;;;;;12.93;9.83;;;11.30;99.90;;;;;;5029387;28;20222;-51
2023/02/12 11:12:35;;;;;;;13.03;9.53;;;10.70;99.70;;;;;;5025527;28;20246;-49
2023/02/12 11:15:13;;;;;;;12.57;10.30;;;10.50;99.90;;;;;;5029317;28;20200;-50
2023/02/12 11:17:42;;;;;;;10.00;9.00;;;10.10;99.90;;;;;;5019573;28;20198;-50
2023/02/12 11:20:25;;;;;;;9.17;8.27;;;9.70;99.90;;;;;;5025406;28;20228;-51
2023/02/12 11:22:55;;;;;;;11.23;8.97;;;9.50;99.90;;;;;;5031666;28;20219;-50
2023/02/12 11:25:24;;;;;;;10.20;9.17;;;9.30;99.90;;;;;;5034849;28;20198;-50
2023/02/12 11:28:15;;;;;;;8.80;7.90;;;9.40;99.90;;;;;;5027861;28;20220;-49
2023/02/12 11:30:52;;;;;;;9.27;8.23;;;9.40;99.90;;;;;;5034493;28;20229;-52
2023/02/12 11:33:26;;;;;;;10.47;9.17;;;9.50;99.90;;;;;;5028264;28;20277;-51
2023/02/12 11:35:56;;;;;;;9.87;8.77;;;9.50;99.90;;;;;;5031282;28;20196;-49
2023/02/12 11:38:35;;;;;;;10.03;8.90;;;9.50;99.90;;;;;;5042339;28;20193;-49
2023/02/12 11:41:23;;;;;;;10.47;9.47;;;9.70;99.90;;;;;;5038156;28;20216;-50
2023/02/12 11:43:51;;;;;;;12.90;9.90;;;9.60;99.90;;;;;;5033307;28;20237;-50
2023/02/12 11:46:24;;;;;;;10.97;8.50;;;9.40;99.90;;;;;;5040352;28;20265;-50
2023/02/12 11:48:52;;;;;;;11.20;8.97;;;9.50;99.90;;;;;;5039346;28;20206;-50
2023/02/12 11:51:22;;;;;;;9.97;8.53;;;9.40;99.90;;;;;;5030080;28;20206;-50
2023/02/12 11:53:52;;;;;;;13.63;10.60;;;9.30;99.90;;;;;;5050140;28;20635;-49
2023/02/12 11:56:20;;;;;;;15.07;11.93;;;9.30;99.90;;;;;;5031650;28;20728;-50
2023/02/12 11:58:48;;;;;;;14.80;11.20;;;9.10;99.90;;;;;;5035392;28;20216;-49
2023/02/12 12:01:21;;;;;;;11.20;10.20;;;9.20;99.90;;;;;;5028342;28;20228;-50
2023/02/12 12:03:59;;;;;;;12.47;9.73;;;9.20;99.90;;;;;;5037782;28;20212;-50
2023/02/12 12:06:32;;;;;;;11.63;9.03;;;9.40;99.90;;;;;;5036780;28;20314;-50
2023/02/12 12:09:06;;;;;;;11.80;8.50;;;9.30;99.90;;;;;;5035689;28;20208;-50
2023/02/12 12:11:44;;;;;;;9.00;8.07;;;9.40;99.90;;;;;;5028689;28;20200;-50
2023/02/12 12:14:17;;;;;;;10.47;7.23;;;9.40;99.90;;;;;;5031030;28;20204;-50
2023/02/12 12:19:52;;;;;;;10.90;9.77;;;9.30;99.90;;;;;;5029677;28;20703;-50
2023/02/12 12:22:42;;;;;;;14.77;10.43;;;9.40;99.90;;;;;;5036007;28;20601;-50
2023/02/12 12:25:20;;;;;;;12.13;9.63;;;9.40;99.90;;;;;;5032441;28;20232;-50
2023/02/12 12:28:04;;;;;;;12.77;9.13;;;9.30;99.90;;;;;;5013359;28;20224;-50
2023/02/12 12:30:44;;;;;;;12.30;9.07;;;9.30;99.90;;;;;;5033484;28;20227;-51
2023/02/12 12:33:19;;;;;;;10.30;8.60;;;9.30;99.90;;;;;;5041922;28;20203;-50
2023/02/12 12:35:56;;;;;;;9.60;7.27;;;9.30;99.90;;;;;;5054266;28;20668;-49
2023/02/12 12:38:38;;;;;;;10.60;7.57;;;9.40;99.90;;;;;;5014489;28;20204;-50
2023/02/12 12:41:12;;;;;;;8.47;7.67;;;9.40;99.90;;;;;;5030051;28;20215;-51
2023/02/12 12:43:55;;;;;;;10.90;7.90;;;9.30;99.90;;;;;;5045022;28;20199;-50
2023/02/12 12:46:51;;;;;;;6.87;6.17;;;9.40;99.90;;;;;;5034274;28;20212;-50
2023/02/12 12:49:42;;;;;;;9.73;7.53;;;9.40;99.90;;;;;;5011211;28;20271;-50
2023/02/12 12:52:35;;;;;;;8.57;6.90;;;9.50;99.90;;;;;;5035332;28;20287;-50
2023/02/12 12:55:23;;;;;;;6.37;5.77;;;9.60;99.90;;;;;;5032343;28;20204;-50
2023/02/12 12:58:01;;;;;;;8.97;6.90;;;9.70;99.90;;;;;;5039495;28;20214;-50
2023/02/12 13:00:41;;;;;;;7.57;6.80;;;9.80;99.90;;;;;;5036396;28;20233;-50
2023/02/12 13:03:38;;;;;;;7.63;6.90;;;10.00;99.90;;;;;;5046966;28;20198;-50